Time;durP1;ratioP1;P1;durP2;ratioP2;P2;SDS_P1;SDS_P2;PMS_P1;PMS_P2;Temp;Humidity;BMP_temperature;BMP_pressure;BME280_temperature;BME280_humidity;BME280_pressure;Samples;Min_cycle;Max_cycle;Signal;HPM_P1;HPM_P2
2023/04/27 00:00:00;;;;;;;8.40;5.00;;;4.10;99.90;;;-141.84;65.80;19358.63;5035861;28;20229;-72
2023/04/27 00:02:28;;;;;;;6.63;5.40;;;4.10;99.90;;;-141.84;65.63;19346.44;5034067;28;20571;-71
2023/04/27 00:04:57;;;;;;;8.27;5.27;;;4.10;99.90;;;-141.84;65.73;19354.56;5033848;28;20338;-71
2023/04/27 00:07:26;;;;;;;9.17;5.83;;;4.10;99.90;;;-141.84;66.57;19366.75;5034894;28;20218;-72
2023/04/27 00:09:54;;;;;;;8.87;5.57;;;4.10;99.90;;;-141.84;66.67;19370.81;5033425;28;20226;-72
2023/04/27 00:12:22;;;;;;;6.60;5.53;;;4.00;99.90;;;-141.84;66.05;19334.22;5033502;28;20654;-71
2023/04/27 00:14:50;;;;;;;8.77;6.70;;;4.00;99.90;;;-141.84;66.66;19299.69;5034626;28;20224;-70
2023/04/27 00:17:20;;;;;;;9.10;6.40;;;4.00;99.90;;;-141.84;66.22;19328.13;5034203;28;20722;-72
2023/04/27 00:19:48;;;;;;;9.17;6.40;;;3.90;99.90;;;-141.84;65.82;19366.75;5034219;28;20644;-71
2023/04/27 00:22:16;;;;;;;7.20;6.30;;;3.90;99.90;;;-141.84;65.02;19348.47;5034671;28;20230;-71
2023/04/27 00:24:44;;;;;;;10.43;6.27;;;3.90;99.90;;;-141.84;65.34;19374.88;5034886;28;20235;-71
2023/04/27 00:27:12;;;;;;;8.37;6.10;;;3.90;99.90;;;-141.84;66.17;19358.63;5033176;28;20231;-72
2023/04/27 00:29:41;;;;;;;10.50;6.90;;;3.80;99.90;;;-141.84;65.94;19326.09;5034540;28;20220;-71
2023/04/27 00:32:10;;;;;;;9.03;7.00;;;3.80;99.90;;;-141.84;66.44;19297.66;5033112;28;20207;-71
2023/04/27 00:34:39;;;;;;;10.27;6.57;;;3.80;99.90;;;-141.84;67.62;19303.75;5033496;28;20204;-71
2023/04/27 00:37:08;;;;;;;8.70;6.77;;;3.70;99.90;;;-141.84;67.57;19309.84;5033325;28;20247;-71
2023/04/27 00:39:36;;;;;;;8.70;7.00;;;3.80;99.90;;;-141.84;67.19;19342.34;5035245;28;20240;-72
2023/04/27 00:42:10;;;;;;;7.97;6.53;;;3.80;99.90;;;-141.84;67.87;19311.88;5033499;28;20240;-70
2023/04/27 00:44:38;;;;;;;9.30;7.17;;;3.80;99.90;;;-141.84;68.03;19356.59;5033872;28;20280;-71
2023/04/27 00:47:09;;;;;;;9.03;7.17;;;3.80;99.90;;;-141.84;68.03;19303.75;5033746;28;20195;-72
2023/04/27 00:49:40;;;;;;;8.93;6.60;;;3.70;99.90;;;-141.84;68.08;19311.88;5034974;28;20205;-71
2023/04/27 00:52:09;;;;;;;8.37;6.70;;;3.70;99.90;;;-141.84;68.25;19289.53;5039388;28;20733;-72
2023/04/27 00:54:37;;;;;;;9.57;6.70;;;3.60;99.90;;;-141.84;68.71;19269.22;5037102;28;20227;-71
2023/04/27 00:57:08;;;;;;;8.33;7.30;;;3.60;99.90;;;-141.84;68.92;19328.13;5037536;28;20823;-71
2023/04/27 00:59:36;;;;;;;9.30;7.20;;;3.60;99.90;;;-141.84;69.27;19261.06;5036429;28;20230;-72
2023/04/27 01:02:05;;;;;;;12.07;7.57;;;3.50;99.90;;;-141.84;69.27;19313.91;5038419;28;20212;-72
2023/04/27 01:04:33;;;;;;;11.27;7.17;;;3.50;99.90;;;-141.84;68.75;19317.97;5035892;28;20230;-72
2023/04/27 01:07:03;;;;;;;11.20;7.23;;;3.50;99.90;;;-141.84;68.84;19293.59;5036523;28;20234;-72
2023/04/27 01:09:31;;;;;;;9.97;7.17;;;3.50;99.90;;;-141.84;69.19;19271.25;5037231;28;20261;-71
2023/04/27 01:11:59;;;;;;;8.63;7.70;;;3.50;99.90;;;-141.84;69.33;19289.53;5037299;28;20242;-70
2023/04/27 01:14:27;;;;;;;9.43;7.27;;;3.50;99.90;;;-141.84;69.48;19279.38;5035725;28;20647;-72
2023/04/27 01:16:55;;;;;;;11.03;8.17;;;3.40;99.90;;;-141.84;69.68;19240.75;5036121;28;20224;-72
2023/04/27 01:19:24;;;;;;;10.87;9.77;;;3.40;99.90;;;-141.84;70.26;19291.56;5035073;28;20274;-71
2023/04/27 01:21:53;;;;;;;11.03;9.33;;;3.30;99.90;;;-141.84;70.57;19289.53;5035279;28;20302;-72
2023/04/27 01:24:25;;;;;;;11.13;8.67;;;3.30;99.90;;;-141.84;71.29;19263.09;5035269;28;20706;-72
2023/04/27 01:26:53;;;;;;;13.97;9.27;;;3.30;99.90;;;-141.84;71.42;19273.28;5033840;28;20230;-72
2023/04/27 01:29:21;;;;;;;13.27;9.23;;;3.20;99.90;;;-141.84;71.62;19277.34;5034171;28;20324;-71
2023/04/27 01:31:49;;;;;;;10.27;8.77;;;3.20;99.90;;;-141.84;71.08;19261.06;5036407;28;20317;-72
2023/04/27 01:34:17;;;;;;;10.07;8.47;;;3.20;99.90;;;-141.84;71.36;19230.59;5034204;28;20226;-71
2023/04/27 01:36:45;;;;;;;12.40;8.03;;;3.20;99.90;;;-141.84;71.60;19289.53;5034970;28;20705;-71
2023/04/27 01:39:14;;;;;;;10.30;7.97;;;3.30;99.90;;;-141.84;71.76;19295.63;5036498;28;20606;-56
2023/04/27 01:41:44;;;;;;;10.07;8.33;;;3.30;99.90;;;-141.84;72.12;19287.50;5035082;28;20285;-53
2023/04/27 01:44:12;;;;;;;10.50;8.07;;;3.20;99.90;;;-141.84;71.79;19285.47;5017091;28;20213;-57
2023/04/27 01:46:40;;;;;;;9.90;7.83;;;3.20;99.90;;;-141.84;71.53;19275.31;5035654;28;20211;-55
2023/04/27 01:49:09;;;;;;;8.43;7.53;;;3.20;99.90;;;-141.84;71.01;19242.78;4998533;28;20225;-56
2023/04/27 01:51:37;;;;;;;11.10;8.03;;;3.20;99.90;;;-141.84;70.59;19267.16;5033838;28;20236;-53
2023/04/27 01:54:09;;;;;;;10.00;7.63;;;3.10;99.90;;;-141.84;70.41;19285.47;5034544;28;20233;-56
2023/04/27 01:56:37;;;;;;;8.93;7.13;;;3.10;99.90;;;-141.84;70.40;19263.09;5034181;28;20229;-55
2023/04/27 01:59:06;;;;;;;10.33;7.60;;;3.10;99.90;;;-141.84;70.32;19248.88;5034717;28;20222;-55
2023/04/27 02:01:34;;;;;;;9.37;7.00;;;3.10;99.90;;;-141.84;70.38;19287.50;5034128;28;20234;-56
2023/04/27 02:04:03;;;;;;;8.03;6.67;;;3.10;99.90;;;-141.84;71.31;19232.63;5034335;28;20293;-55
2023/04/27 02:06:32;;;;;;;9.13;6.80;;;3.00;99.90;;;-141.84;70.98;19236.69;5034242;28;20725;-54
2023/04/27 02:09:00;;;;;;;9.30;6.67;;;3.00;99.90;;;-141.84;70.58;19257.00;5034395;28;20222;-54
2023/04/27 02:11:28;;;;;;;9.30;6.93;;;3.00;99.90;;;-141.84;70.41;19240.75;5034511;28;20226;-55
2023/04/27 02:13:56;;;;;;;9.77;7.03;;;2.90;99.90;;;-141.84;70.20;19232.63;5034744;28;20201;-55
2023/04/27 02:16:25;;;;;;;9.83;6.50;;;2.90;99.90;;;-141.84;70.41;19212.31;5033326;28;20234;-54
2023/04/27 02:18:54;;;;;;;9.97;6.60;;;2.90;99.90;;;-141.84;70.52;19216.38;5035602;28;20230;-54
2023/04/27 02:21:22;;;;;;;10.30;7.20;;;2.90;99.90;;;-141.84;70.15;19269.22;5033866;28;20724;-54
2023/04/27 02:23:50;;;;;;;7.53;6.43;;;2.90;99.90;;;-141.84;70.36;19232.63;5034395;28;20732;-57
2023/04/27 02:26:20;;;;;;;13.40;7.20;;;2.90;99.90;;;-141.84;70.26;19234.66;5033213;28;20241;-54
2023/04/27 02:28:49;;;;;;;10.03;6.60;;;2.90;99.90;;;-141.84;70.16;19238.72;5035149;28;20182;-54
2023/04/27 02:31:17;;;;;;;9.43;7.70;;;2.90;99.90;;;-141.84;70.33;19271.25;5033817;28;20460;-55
2023/04/27 02:33:47;;;;;;;10.43;6.70;;;2.90;99.90;;;-141.84;70.46;19224.50;5033281;28;20686;-55
2023/04/27 02:36:15;;;;;;;11.30;6.97;;;2.90;99.90;;;-141.84;70.32;19242.78;5034539;28;20264;-56
2023/04/27 02:38:43;;;;;;;8.13;6.80;;;2.80;99.90;;;-141.84;70.42;19228.56;5033755;28;20578;-56
2023/04/27 02:41:12;;;;;;;9.10;7.33;;;2.80;99.90;;;-141.84;69.94;19261.06;5016215;28;20206;-56
2023/04/27 02:43:40;;;;;;;8.13;6.63;;;2.90;99.90;;;-141.84;69.47;19240.75;5034441;28;20199;-55
2023/04/27 02:46:08;;;;;;;9.87;7.23;;;2.90;99.90;;;-141.84;69.58;19263.09;5034005;28;20302;-55
2023/04/27 02:48:36;;;;;;;8.97;6.60;;;2.90;99.90;;;-141.84;69.64;19228.56;5032983;28;20230;-70
2023/04/27 02:51:06;;;;;;;10.83;7.17;;;2.80;99.90;;;-141.84;70.21;19273.28;5033487;28;20596;-71
2023/04/27 02:53:35;;;;;;;10.20;7.23;;;2.90;99.90;;;-141.84;70.04;19230.59;5034886;28;20290;-72
2023/04/27 02:56:09;;;;;;;9.30;7.33;;;2.80;99.90;;;-141.84;70.04;19254.97;5034841;28;20210;-70
2023/04/27 02:58:37;;;;;;;11.43;7.57;;;2.80;99.90;;;-141.84;69.46;19273.28;5033102;28;20229;-71
2023/04/27 03:01:05;;;;;;;7.97;6.27;;;2.80;99.90;;;-141.84;69.67;19250.91;5035205;28;20236;-72
2023/04/27 03:03:33;;;;;;;9.80;6.37;;;2.80;99.90;;;-141.84;70.06;19248.88;5023645;28;20225;-70
2023/04/27 03:06:02;;;;;;;8.70;6.80;;;2.80;99.90;;;-141.84;70.30;19232.63;5013376;28;20750;-56
2023/04/27 03:08:32;;;;;;;10.30;7.47;;;2.80;99.90;;;-141.84;70.39;19220.44;5014494;28;20238;-55
2023/04/27 03:11:00;;;;;;;8.73;6.67;;;2.70;99.90;;;-141.84;70.69;19210.28;5024722;28;20206;-55
2023/04/27 03:13:28;;;;;;;7.87;6.77;;;2.70;99.90;;;-141.84;70.97;19204.19;5032429;28;20232;-55
2023/04/27 03:15:56;;;;;;;10.47;6.73;;;2.70;99.90;;;-141.84;70.57;19244.81;5032334;28;20237;-54
2023/04/27 03:18:25;;;;;;;9.97;6.33;;;2.70;99.90;;;-141.84;70.32;19242.78;5033373;28;20235;-57
2023/04/27 03:20:53;;;;;;;8.97;6.87;;;2.70;99.90;;;-141.84;70.04;19232.63;4998416;28;20609;-55
2023/04/27 03:23:21;;;;;;;8.83;6.30;;;2.70;99.90;;;-141.84;70.11;19238.72;5030051;28;20202;-57
2023/04/27 03:25:55;;;;;;;9.60;7.40;;;2.70;99.90;;;-141.84;70.22;19216.38;5013997;28;20201;-54
2023/04/27 03:28:23;;;;;;;8.80;6.73;;;2.70;99.90;;;-141.84;70.04;19194.03;5033580;28;20279;-55
2023/04/27 03:30:51;;;;;;;10.37;7.00;;;2.70;99.90;;;-141.84;70.04;19269.22;5032809;28;20244;-56
2023/04/27 03:33:19;;;;;;;9.30;6.50;;;2.70;99.90;;;-141.84;70.29;19206.22;5032838;28;20236;-52
2023/04/27 03:35:55;;;;;;;9.37;7.03;;;2.70;99.90;;;-141.84;70.36;19214.34;5034432;28;20232;-52
2023/04/27 03:38:24;;;;;;;9.90;7.17;;;2.70;99.90;;;-141.84;70.83;19228.56;5032304;28;20213;-57
2023/04/27 03:40:54;;;;;;;11.50;6.93;;;2.70;99.90;;;-141.84;71.22;19220.44;5032930;28;20573;-57
2023/04/27 03:43:24;;;;;;;8.70;7.00;;;2.70;99.90;;;-141.84;71.38;19204.19;5032019;28;20229;-58
2023/04/27 03:45:53;;;;;;;11.30;7.30;;;2.70;99.90;;;-141.84;71.61;19230.59;4997838;28;20235;-56
2023/04/27 03:48:21;;;;;;;11.63;7.77;;;2.70;99.90;;;-141.84;71.28;19204.19;5032400;28;20283;-56
2023/04/27 03:50:51;;;;;;;8.53;6.80;;;2.70;99.90;;;-141.84;71.54;19212.31;5032625;28;20232;-57
2023/04/27 03:53:19;;;;;;;10.47;7.30;;;2.70;99.90;;;-141.84;71.66;19224.50;5032564;28;20209;-56
2023/04/27 03:55:47;;;;;;;9.53;7.03;;;2.70;99.90;;;-141.84;71.09;19212.31;5032446;28;20568;-71
2023/04/27 03:58:17;;;;;;;8.90;7.17;;;2.70;99.90;;;-141.84;70.73;19218.41;5033169;28;20233;-55
2023/04/27 04:00:45;;;;;;;8.40;6.93;;;2.80;99.90;;;-141.84;70.26;19226.53;5032467;28;20310;-57
2023/04/27 04:03:13;;;;;;;10.07;7.37;;;2.80;99.90;;;-141.84;69.06;19261.06;5032036;28;20234;-55
2023/04/27 04:05:42;;;;;;;11.37;6.87;;;2.90;99.90;;;-141.84;68.96;19263.09;5031705;28;20705;-56
2023/04/27 04:08:13;;;;;;;9.33;6.40;;;3.00;99.90;;;-141.84;68.50;19254.97;5011962;28;20194;-55
2023/04/27 04:10:41;;;;;;;8.43;6.57;;;3.10;99.90;;;-141.84;68.23;19313.91;5032169;28;20684;-55
2023/04/27 04:13:11;;;;;;;10.60;6.50;;;3.30;99.90;;;-141.84;68.33;19271.25;5032035;28;20226;-55
2023/04/27 04:15:41;;;;;;;10.03;6.50;;;3.40;99.90;;;-141.84;68.25;19283.44;5032298;28;20226;-55
2023/04/27 04:18:09;;;;;;;8.33;6.77;;;3.40;99.90;;;-141.84;67.16;19301.72;5012789;28;20249;-53
2023/04/27 04:20:37;;;;;;;9.40;6.47;;;3.50;99.90;;;-141.84;66.52;19309.84;5032953;28;20245;-55
2023/04/27 04:23:06;;;;;;;9.50;6.30;;;3.60;99.90;;;-141.84;65.92;19317.97;5033322;28;20233;-58
2023/04/27 04:25:34;;;;;;;9.17;6.50;;;3.70;99.90;;;-141.84;66.30;19311.88;5034576;28;20376;-56
2023/04/27 04:28:02;;;;;;;8.90;6.30;;;3.60;99.90;;;-141.84;66.43;19281.41;5035575;28;20734;-55
2023/04/27 04:30:31;;;;;;;7.60;6.23;;;3.60;99.90;;;-141.84;66.26;19301.72;5035959;28;20232;-56
2023/04/27 04:33:00;;;;;;;9.80;6.50;;;3.60;99.90;;;-141.84;65.66;19330.16;5036360;28;20232;-55
2023/04/27 04:35:29;;;;;;;9.33;6.60;;;3.70;99.90;;;-141.84;65.11;19305.78;5036815;28;20253;-57
2023/04/27 04:37:57;;;;;;;8.40;6.70;;;3.70;99.90;;;-141.84;65.21;19307.81;5036604;28;20229;-54
2023/04/27 04:40:25;;;;;;;7.30;6.23;;;3.70;99.90;;;-141.84;65.16;19297.66;5034839;28;20223;-57
2023/04/27 04:42:54;;;;;;;9.23;6.87;;;3.80;99.90;;;-141.84;65.28;19330.16;5037527;28;20230;-54
2023/04/27 04:45:22;;;;;;;10.37;7.50;;;3.80;99.90;;;-141.84;64.90;19326.09;5037132;28;20226;-54
2023/04/27 04:47:54;;;;;;;8.13;6.73;;;3.80;99.90;;;-141.84;64.79;19303.75;5017403;28;20598;-57
2023/04/27 04:50:24;;;;;;;7.60;6.60;;;3.90;99.90;;;-141.84;64.94;19311.88;5036806;28;20299;-56
2023/04/27 04:52:52;;;;;;;10.67;7.30;;;4.00;99.90;;;-141.84;64.85;19362.69;5036657;28;20678;-53
2023/04/27 04:55:21;;;;;;;10.47;6.70;;;4.10;99.90;;;-141.84;64.89;19366.75;5038285;28;20235;-54
2023/04/27 04:57:49;;;;;;;9.23;7.63;;;4.10;99.90;;;-141.84;63.75;19383.00;5034370;28;20234;-52
2023/04/27 05:00:18;;;;;;;9.40;7.77;;;4.30;99.90;;;-141.84;63.57;19383.00;5039009;28;20234;-52
2023/04/27 05:02:46;;;;;;;9.67;7.90;;;4.50;99.90;;;-141.84;63.03;19443.97;5035043;28;20225;-55
2023/04/27 05:05:14;;;;;;;10.43;8.50;;;4.80;99.90;;;-141.84;61.99;19421.63;5036013;28;20208;-53
2023/04/27 05:07:44;;;;;;;8.63;7.57;;;5.00;99.90;;;-141.84;61.40;19464.28;5035806;28;20208;-55
2023/04/27 05:10:12;;;;;;;11.17;8.30;;;5.20;99.90;;;-141.84;61.62;19474.44;5034226;28;20227;-55
2023/04/27 05:12:43;;;;;;;10.47;7.20;;;5.30;99.90;;;-141.84;61.79;19456.16;5034026;28;20259;-52
2023/04/27 05:15:12;;;;;;;9.40;7.50;;;5.30;99.90;;;-141.84;61.34;19429.75;5034546;28;20232;-53
2023/04/27 05:17:40;;;;;;;9.37;6.40;;;5.40;99.90;;;-141.84;61.39;19443.97;5034083;28;20220;-56
2023/04/27 05:20:10;;;;;;;9.90;6.67;;;5.40;99.90;;;-141.84;61.81;19441.94;5034134;28;20221;-56
2023/04/27 05:22:38;;;;;;;11.13;7.57;;;5.40;99.90;;;-141.84;62.04;19431.78;5035254;28;20653;-55
2023/04/27 05:25:09;;;;;;;10.23;6.87;;;5.40;99.90;;;-141.84;62.33;19456.16;5035445;28;20233;-51
2023/04/27 05:27:37;;;;;;;10.17;6.60;;;5.30;99.90;;;-141.84;62.03;19466.31;5034442;28;20256;-52
2023/04/27 05:30:06;;;;;;;9.90;7.53;;;5.40;99.90;;;-141.84;62.00;19454.13;5034513;28;20236;-55
2023/04/27 05:32:36;;;;;;;10.13;7.23;;;5.40;99.90;;;-141.84;62.23;19466.31;5033980;28;20716;-57
2023/04/27 05:35:05;;;;;;;8.53;6.90;;;5.40;99.90;;;-141.84;60.84;19488.69;5034923;28;20303;-54
2023/04/27 05:37:33;;;;;;;10.73;7.13;;;5.50;99.90;;;-141.84;60.60;19482.56;5033751;28;20301;-54
2023/04/27 05:40:02;;;;;;;8.50;6.53;;;5.60;99.90;;;-141.84;60.35;19464.28;5034801;28;20252;-54
2023/04/27 05:42:32;;;;;;;13.37;7.00;;;5.70;99.90;;;-141.84;60.33;19462.25;5034411;28;20226;-56
2023/04/27 05:45:00;;;;;;;11.10;7.60;;;5.70;99.90;;;-141.84;60.58;19486.66;5034964;28;20229;-54
2023/04/27 05:47:29;;;;;;;11.87;7.27;;;5.70;99.90;;;-141.84;60.64;19484.59;5035197;28;20225;-54
2023/04/27 05:49:57;;;;;;;10.27;6.70;;;5.70;99.90;;;-141.84;60.37;19480.53;5034003;28;20632;-55
2023/04/27 05:52:29;;;;;;;7.67;6.80;;;5.70;99.90;;;-141.84;60.66;19470.38;5033686;28;20233;-54
2023/04/27 05:54:58;;;;;;;7.73;6.80;;;5.70;99.90;;;-141.84;60.81;19523.22;5034284;28;20684;-56
2023/04/27 05:57:29;;;;;;;11.73;7.57;;;5.80;99.90;;;-141.84;60.80;19496.81;5034894;28;20233;-54
2023/04/27 05:59:59;;;;;;;8.53;6.50;;;5.80;99.90;;;-141.84;59.46;19523.22;5034529;28;20229;-55
2023/04/27 06:02:27;;;;;;;10.03;6.60;;;6.00;99.90;;;-141.84;59.48;19521.19;5033023;28;20208;-55
2023/04/27 06:04:55;;;;;;;8.73;6.50;;;6.20;99.90;;;-141.84;58.56;19596.38;5034418;28;20216;-53
2023/04/27 06:07:24;;;;;;;9.73;7.13;;;6.50;99.90;;;-141.84;57.57;19637.03;5034904;28;20649;-53
2023/04/27 06:09:52;;;;;;;10.20;6.93;;;6.70;99.90;;;-141.84;56.93;19614.66;5033240;28;20320;-56
2023/04/27 06:12:20;;;;;;;8.93;6.70;;;7.00;99.90;;;-141.84;56.56;19608.56;5033399;28;20237;-54
2023/04/27 06:14:48;;;;;;;12.63;6.80;;;7.10;99.90;;;-141.84;56.12;19641.09;5033592;28;20634;-54
2023/04/27 06:17:18;;;;;;;8.87;6.60;;;7.10;99.90;;;-141.84;56.37;19651.25;5033078;28;20216;-55
2023/04/27 06:19:46;;;;;;;10.80;7.43;;;7.10;99.90;;;-141.84;55.64;19630.94;5034268;28;20804;-53
2023/04/27 06:22:14;;;;;;;10.67;6.93;;;7.10;99.90;;;-141.84;55.43;19632.97;5033369;28;20240;-55
2023/04/27 06:24:43;;;;;;;9.20;6.60;;;7.30;99.90;;;-141.84;54.94;19663.44;5033942;28;20856;-55
2023/04/27 06:27:12;;;;;;;10.50;6.53;;;7.40;99.90;;;-141.84;55.50;19639.06;5034542;28;20233;-56
2023/04/27 06:29:40;;;;;;;8.00;6.50;;;7.50;99.90;;;-141.84;55.61;19622.81;5037178;28;20245;-55
2023/04/27 06:32:11;;;;;;;10.00;6.70;;;7.50;99.90;;;-141.84;55.77;19645.16;5036615;28;20222;-56
2023/04/27 06:34:41;;;;;;;10.27;6.53;;;7.50;99.90;;;-141.84;56.16;19647.19;5036026;28;20299;-54
2023/04/27 06:37:09;;;;;;;8.20;7.10;;;7.50;99.90;;;-141.84;55.24;19718.31;5036199;28;20236;-55
2023/04/27 06:39:37;;;;;;;13.83;7.00;;;7.70;99.90;;;-141.84;54.74;19736.59;5036895;28;20245;-56
2023/04/27 06:42:09;;;;;;;11.17;7.30;;;7.90;99.90;;;-141.84;53.60;19750.84;5037645;28;20234;-57
2023/04/27 06:44:37;;;;;;;10.77;7.17;;;8.10;99.90;;;-141.84;53.15;19752.88;5037437;28;20232;-58
2023/04/27 06:47:08;;;;;;;10.23;6.53;;;8.20;99.90;;;-141.84;52.49;19846.34;5037120;28;20194;-57
2023/04/27 06:49:37;;;;;;;10.37;6.70;;;8.60;99.90;;;-141.84;50.91;19878.88;5037283;28;20299;-56
2023/04/27 06:52:10;;;;;;;9.27;6.50;;;8.80;99.90;;;-141.84;50.38;19941.88;5037501;28;20230;-55
2023/04/27 06:54:38;;;;;;;9.93;6.57;;;9.30;99.90;;;-141.84;50.34;19974.41;5036991;28;20238;-54
2023/04/27 06:57:09;;;;;;;10.30;6.67;;;9.40;99.90;;;-141.84;50.25;19964.25;5032468;28;20260;-55
2023/04/27 06:59:37;;;;;;;9.03;6.37;;;9.60;99.90;;;-141.84;49.33;19988.63;5037110;28;20230;-55
2023/04/27 07:02:08;;;;;;;9.67;6.63;;;9.60;99.90;;;-141.84;48.74;19972.38;5037541;28;20213;-58
2023/04/27 07:04:37;;;;;;;10.40;5.47;;;9.80;99.90;;;-141.84;48.65;20006.91;5017598;28;20229;-58
2023/04/27 07:07:09;;;;;;;9.90;5.97;;;10.00;99.90;;;-141.84;48.43;20045.53;5017937;28;20286;-56
2023/04/27 07:09:37;;;;;;;9.97;5.70;;;10.10;99.90;;;-141.84;47.86;20027.25;5018473;28;20238;-54
2023/04/27 07:12:10;;;;;;;8.83;6.00;;;10.10;99.90;;;-141.84;48.10;20043.50;4998281;28;20238;-55
2023/04/27 07:14:38;;;;;;;6.93;5.70;;;10.20;99.90;;;-141.84;48.12;20004.88;4998132;28;20656;-56
2023/04/27 07:17:08;;;;;;;10.00;5.67;;;10.30;99.90;;;-141.84;48.19;20000.81;4998141;28;20207;-57
2023/04/27 07:19:37;;;;;;;8.63;5.47;;;10.10;99.90;;;-141.84;48.44;20031.31;5018618;28;20212;-58
2023/04/27 07:22:10;;;;;;;9.03;5.70;;;10.20;99.90;;;-141.84;48.54;20023.19;5036807;28;20281;-56
2023/04/27 07:24:38;;;;;;;8.60;5.53;;;10.20;99.90;;;-141.84;48.35;20041.47;5036504;28;20190;-57
2023/04/27 07:27:10;;;;;;;7.97;6.07;;;10.10;99.90;;;-141.84;48.64;20043.50;5036732;28;20265;-57
2023/04/27 07:29:38;;;;;;;12.50;5.83;;;10.20;99.90;;;-141.84;49.47;19990.66;5036892;28;20213;-55
2023/04/27 07:32:09;;;;;;;5.80;5.20;;;10.10;99.90;;;-141.84;48.24;20059.75;5036816;28;20216;-55
2023/04/27 07:34:38;;;;;;;7.53;5.07;;;10.00;99.90;;;-141.84;48.83;20035.38;5036435;28;20193;-56
2023/04/27 07:37:24;;;;;;;6.53;5.80;;;9.90;99.90;;;-141.84;48.67;20051.63;5024827;28;20278;-57
2023/04/27 07:39:55;;;;;;;10.80;5.80;;;10.00;99.90;;;-141.84;48.33;20098.38;5014640;28;20206;-55
2023/04/27 07:42:28;;;;;;;7.00;6.30;;;10.20;99.90;;;-141.84;48.63;20088.22;5016604;28;20202;-56
2023/04/27 07:44:57;;;;;;;11.87;6.53;;;10.40;99.90;;;-141.84;48.41;20106.50;5016463;28;20187;-54
2023/04/27 07:47:28;;;;;;;8.57;5.83;;;10.60;99.90;;;-141.84;48.40;20084.16;5016554;28;20207;-55
2023/04/27 07:49:56;;;;;;;9.17;6.07;;;10.60;99.90;;;-141.84;48.24;20120.75;5016740;28;20183;-54
2023/04/27 07:52:29;;;;;;;8.20;6.27;;;10.60;99.90;;;-141.84;48.65;20110.56;5017719;28;20206;-57
2023/04/27 07:54:57;;;;;;;10.87;5.90;;;10.60;99.90;;;-141.84;48.93;20092.28;5036513;28;20198;-55
2023/04/27 07:57:28;;;;;;;7.23;5.37;;;10.50;99.90;;;-141.84;48.64;20100.41;5036799;28;20217;-53
2023/04/27 07:59:57;;;;;;;9.27;5.90;;;10.70;99.90;;;-141.84;48.81;20043.50;5034461;28;20186;-55
2023/04/27 08:02:30;;;;;;;8.70;5.30;;;10.60;99.90;;;-141.84;48.75;20086.19;5035892;28;20230;-57
2023/04/27 08:04:58;;;;;;;10.27;6.23;;;10.70;99.90;;;-141.84;48.40;20118.69;5036344;28;20288;-55
2023/04/27 08:07:31;;;;;;;7.10;4.90;;;10.90;99.90;;;-141.84;48.26;20102.44;5036722;28;20210;-55
2023/04/27 08:10:00;;;;;;;5.93;5.10;;;10.90;99.90;;;-141.84;48.29;20082.13;5033385;28;20203;-56
2023/04/27 08:12:33;;;;;;;7.70;5.47;;;10.70;99.90;;;-141.84;47.53;20171.56;5016877;28;20296;-56
2023/04/27 08:15:01;;;;;;;6.90;4.93;;;11.00;99.90;;;-141.84;46.17;20163.41;5016495;28;20195;-55
2023/04/27 08:17:35;;;;;;;8.60;5.50;;;11.20;99.90;;;-141.84;45.31;20191.88;5015890;28;20207;-56
2023/04/27 08:20:08;;;;;;;6.60;4.60;;;11.30;99.90;;;-141.84;46.07;20159.34;5016421;28;20199;-56
2023/04/27 08:22:38;;;;;;;8.37;6.07;;;11.20;99.90;;;-141.84;46.01;20171.56;5016547;28;20637;-56
2023/04/27 08:25:09;;;;;;;8.83;5.63;;;11.30;99.90;;;-141.84;45.24;20197.97;5016535;28;20229;-54
2023/04/27 08:27:39;;;;;;;8.23;5.23;;;11.30;99.90;;;-141.84;44.81;20195.94;5005795;28;20238;-55
2023/04/27 08:30:09;;;;;;;8.57;5.83;;;11.50;99.90;;;-141.84;45.13;20220.34;4997040;28;20234;-54
2023/04/27 08:32:38;;;;;;;6.63;5.40;;;11.30;99.90;;;-141.84;44.54;20236.59;5019158;28;20209;-51
2023/04/27 08:35:10;;;;;;;8.37;5.37;;;11.60;99.90;;;-141.84;44.68;20151.22;5036365;28;20226;-52
2023/04/27 08:37:39;;;;;;;7.07;5.27;;;11.50;99.90;;;-141.84;45.52;20153.25;5021878;28;20215;-54
2023/04/27 08:40:10;;;;;;;9.90;6.10;;;11.20;99.90;;;-141.84;45.52;20173.59;5016387;28;20314;-54
2023/04/27 08:42:41;;;;;;;7.37;5.23;;;11.20;99.90;;;-141.84;45.67;20175.63;5015793;28;20207;-54
2023/04/27 08:45:14;;;;;;;8.13;6.07;;;11.30;99.90;;;-141.84;46.44;20175.63;5015936;28;20219;-56
2023/04/27 08:47:43;;;;;;;10.67;5.93;;;11.30;99.90;;;-141.84;45.92;20183.75;5015710;28;20207;-52
2023/04/27 08:50:15;;;;;;;9.67;5.80;;;11.40;99.90;;;-141.84;45.47;20134.97;5046625;28;20231;-53
2023/04/27 08:52:49;;;;;;;11.13;6.07;;;11.10;99.90;;;-141.84;45.86;20100.41;5015950;28;20199;-52
2023/04/27 08:55:17;;;;;;;7.07;5.43;;;10.80;99.90;;;-141.84;46.81;20074.00;5016075;28;20184;-54
2023/04/27 08:57:57;;;;;;;8.23;5.97;;;10.70;99.90;;;-141.84;46.92;20069.94;5016223;28;20202;-54
2023/04/27 09:00:38;;;;;;;8.83;6.23;;;10.70;99.90;;;-141.84;46.98;20124.81;5016191;28;20186;-57
2023/04/27 09:03:18;;;;;;;7.97;5.53;;;10.90;99.90;;;-141.84;46.35;20132.94;5031186;28;20202;-52
2023/04/27 09:05:49;;;;;;;8.63;6.50;;;11.00;99.90;;;-141.84;45.89;20191.88;5036107;28;20210;-54
2023/04/27 09:08:48;;;;;;;9.27;6.80;;;11.30;99.90;;;-141.84;45.54;20210.16;5035606;28;20293;-55
2023/04/27 09:11:30;;;;;;;9.10;6.60;;;11.40;99.90;;;-141.84;44.61;20206.09;5024360;28;20199;-57
2023/04/27 09:14:00;;;;;;;8.93;6.50;;;11.30;99.90;;;-141.84;45.03;20189.84;5019490;28;20631;-53
2023/04/27 09:16:31;;;;;;;8.37;5.90;;;11.40;99.90;;;-141.84;43.89;20313.84;5019929;28;20259;-54
2023/04/27 09:18:59;;;;;;;8.97;5.97;;;11.70;99.90;;;-141.84;43.41;20254.88;5019163;28;20271;-57
2023/04/27 09:21:31;;;;;;;9.30;6.93;;;11.80;99.90;;;-141.84;42.80;20275.22;5019982;28;20242;-55
2023/04/27 09:24:11;;;;;;;8.87;6.47;;;12.00;99.90;;;-141.84;43.35;20240.66;5007927;28;20214;-54
2023/04/27 09:26:41;;;;;;;8.67;6.20;;;12.00;99.90;;;-141.84;44.41;20269.13;4999181;28;20233;-56
2023/04/27 09:29:11;;;;;;;7.23;6.30;;;11.90;99.90;;;-141.84;43.69;20250.81;4981417;28;20256;-55
2023/04/27 09:31:40;;;;;;;9.77;6.20;;;11.90;99.90;;;-141.84;44.54;20234.56;5006391;28;20542;-56
2023/04/27 09:34:11;;;;;;;9.60;6.97;;;11.80;99.90;;;-141.84;44.04;20228.47;5039409;28;20229;-55
2023/04/27 09:36:40;;;;;;;8.10;6.50;;;11.70;99.90;;;-141.84;43.33;20218.31;5032609;28;20209;-56
2023/04/27 09:39:11;;;;;;;7.77;6.17;;;11.50;99.90;;;-141.84;43.21;20244.72;5019338;28;20203;-54
2023/04/27 09:41:40;;;;;;;8.83;6.33;;;11.60;99.90;;;-141.84;43.50;20273.19;5018377;28;20720;-56
2023/04/27 09:44:09;;;;;;;9.67;7.20;;;11.70;99.90;;;-141.84;41.56;20421.56;5019319;28;20209;-53
2023/04/27 09:46:38;;;;;;;10.60;6.70;;;12.20;99.90;;;-141.84;40.81;20537.44;5018495;28;20233;-55
2023/04/27 09:49:13;;;;;;;6.82;5.57;;;12.50;99.90;;;-141.84;40.20;20490.66;5018908;28;20214;-56
2023/04/27 09:51:42;;;;;;;9.25;6.65;;;12.70;99.90;;;-141.84;40.24;20460.19;5018137;28;20203;-54
2023/04/27 09:54:17;;;;;;;8.27;6.03;;;12.70;99.90;;;-141.84;40.05;20407.34;4999921;28;20261;-56
2023/04/27 09:57:18;;;;;;;7.77;5.90;;;12.50;99.90;;;-141.84;41.27;20354.47;5017997;28;20233;-56
2023/04/27 10:00:15;;;;;;;8.17;6.57;;;12.30;99.90;;;-141.84;41.06;20374.81;5018674;28;20194;-53
2023/04/27 10:03:06;;;;;;;8.95;6.80;;;12.10;99.90;;;-141.84;42.02;20330.09;5028876;28;20276;-53
2023/04/27 10:06:27;;;;;;;9.00;6.03;;;12.10;99.90;;;-141.84;42.63;20291.47;5037185;28;20625;-55
2023/04/27 10:08:58;;;;;;;10.32;7.15;;;12.10;99.90;;;-141.84;43.86;20228.47;5031844;28;20202;-55
2023/04/27 10:11:40;;;;;;;8.70;6.57;;;11.80;99.90;;;-141.84;43.04;20295.53;5023765;28;20195;-55
2023/04/27 10:14:16;;;;;;;9.73;6.97;;;11.90;99.90;;;-141.84;43.26;20281.31;5018760;28;20197;-57
2023/04/27 10:16:51;;;;;;;7.83;5.97;;;11.70;99.90;;;-141.84;43.63;20202.03;5018001;28;20269;-52
2023/04/27 10:19:21;;;;;;;9.73;6.80;;;11.60;99.90;;;-141.84;44.24;20177.66;5014090;28;20203;-55